createdAt,value
2018-05-21T00:01:54.244Z,15.40
2018-05-21T00:04:20.713Z,15.40
2018-05-21T00:06:47.081Z,15.40
2018-05-21T00:09:14.669Z,15.40
2018-05-21T00:11:41.303Z,15.40
2018-05-21T00:14:07.711Z,15.50
2018-05-21T00:16:34.850Z,15.50
2018-05-21T00:19:02.019Z,15.50
2018-05-21T00:21:29.229Z,15.60
2018-05-21T00:23:55.761Z,15.50
2018-05-21T00:26:22.216Z,15.60
2018-05-21T00:28:50.322Z,15.50
2018-05-21T00:31:16.927Z,15.50
2018-05-21T00:33:43.405Z,15.50
2018-05-21T00:36:09.803Z,15.50
2018-05-21T00:38:36.338Z,15.20
2018-05-21T00:41:03.469Z,15.50
2018-05-21T00:43:30.149Z,15.40
2018-05-21T00:45:56.529Z,15.40
2018-05-21T00:48:22.930Z,15.20
2018-05-21T00:50:49.374Z,15.40
2018-05-21T00:53:15.754Z,15.20
2018-05-21T00:55:42.904Z,15.30
2018-05-21T00:58:09.321Z,15.30
2018-05-21T01:00:35.701Z,15.20
2018-05-21T01:03:02.083Z,15.20
2018-05-21T01:05:29.213Z,15.10
2018-05-21T01:07:55.622Z,15.00
2018-05-21T01:10:21.985Z,15.10
2018-05-21T01:12:48.467Z,15.00
2018-05-21T01:15:14.891Z,15.00
2018-05-21T01:17:42.039Z,14.90
2018-05-21T01:20:09.220Z,14.80
2018-05-21T01:22:35.627Z,14.90
2018-05-21T01:25:02.793Z,14.80
2018-05-21T01:27:29.236Z,14.80
2018-05-21T01:29:55.587Z,14.60
2018-05-21T01:32:22.007Z,14.70
2018-05-21T01:34:48.402Z,14.70
2018-05-21T01:37:15.597Z,14.60
2018-05-21T01:39:42.035Z,14.60
2018-05-21T01:42:08.452Z,14.50
2018-05-21T01:44:34.865Z,14.20
2018-05-21T01:47:01.616Z,14.50
2018-05-21T01:49:27.990Z,14.40
2018-05-21T01:51:54.475Z,14.40
2018-05-21T01:54:21.012Z,14.40
2018-05-21T01:56:47.400Z,14.40
2018-05-21T01:59:13.802Z,14.40
2018-05-21T02:01:40.243Z,14.30
2018-05-21T02:04:08.275Z,14.40
2018-05-21T02:06:36.670Z,14.30
2018-05-21T02:09:07.317Z,14.30
2018-05-21T02:11:33.773Z,14.30
2018-05-21T02:14:00.195Z,14.30
2018-05-21T02:16:26.637Z,14.30
2018-05-21T02:18:53.050Z,14.30
2018-05-21T02:21:19.476Z,14.00
2018-05-21T02:23:46.130Z,14.30
2018-05-21T02:26:12.501Z,14.20
2018-05-21T02:28:39.709Z,14.10
2018-05-21T02:31:06.265Z,14.00
2018-05-21T02:33:32.753Z,14.10
2018-05-21T02:35:59.243Z,13.90
2018-05-21T02:38:26.406Z,14.00
2018-05-21T02:40:53.010Z,14.00
2018-05-21T02:43:19.422Z,14.00
2018-05-21T02:45:45.878Z,14.00
2018-05-21T02:48:12.684Z,14.00
2018-05-21T02:50:39.140Z,14.00
2018-05-21T02:53:05.714Z,14.00
2018-05-21T02:55:32.113Z,13.80
2018-05-21T02:57:58.503Z,14.00
2018-05-21T03:00:24.919Z,14.00
2018-05-21T03:02:51.557Z,13.90
2018-05-21T03:05:18.785Z,13.80
2018-05-21T03:07:45.128Z,13.80
2018-05-21T03:10:12.987Z,13.70
2018-05-21T03:12:39.424Z,13.80
2018-05-21T03:15:06.573Z,13.70
2018-05-21T03:17:33.610Z,13.70
2018-05-21T03:20:00.051Z,13.70
2018-05-21T03:22:26.455Z,13.60
2018-05-21T03:24:52.860Z,13.60
2018-05-21T03:27:19.234Z,13.60
2018-05-21T03:29:45.663Z,13.60
2018-05-21T03:32:12.084Z,13.60
2018-05-21T03:34:38.554Z,13.50
2018-05-21T03:37:05.231Z,11.50
2018-05-21T03:39:31.612Z,13.30
2018-05-21T03:41:58.042Z,13.40
2018-05-21T03:44:24.472Z,13.40
2018-05-21T03:46:51.271Z,13.40
2018-05-21T03:49:17.903Z,13.40
2018-05-21T03:51:44.438Z,13.30
2018-05-21T03:54:11.068Z,13.30
2018-05-21T03:56:37.465Z,13.40
2018-05-21T03:59:22.606Z,13.30
2018-05-21T04:02:08.136Z,13.30
2018-05-21T04:04:34.607Z,13.30
2018-05-21T04:07:00.982Z,13.30
2018-05-21T04:09:27.434Z,13.30
2018-05-21T04:11:53.894Z,13.30
2018-05-21T04:14:20.257Z,13.30
2018-05-21T04:16:46.624Z,13.40
2018-05-21T04:19:13.782Z,13.40
2018-05-21T04:21:40.907Z,13.40
2018-05-21T04:24:07.500Z,13.40
2018-05-21T04:26:34.729Z,13.40
2018-05-21T04:29:01.954Z,13.50
2018-05-21T04:31:28.340Z,13.50
2018-05-21T04:33:55.155Z,13.60
2018-05-21T04:36:22.385Z,13.70
2018-05-21T04:38:48.765Z,13.70
2018-05-21T04:41:15.343Z,13.70
2018-05-21T04:43:41.764Z,13.80
2018-05-21T04:46:08.557Z,13.90
2018-05-21T04:48:35.704Z,14.00
2018-05-21T04:51:02.880Z,14.00
2018-05-21T04:53:29.320Z,14.00
2018-05-21T04:55:55.687Z,14.10
2018-05-21T04:58:22.363Z,14.00
2018-05-21T05:00:48.816Z,14.20
2018-05-21T05:03:15.214Z,14.30
2018-05-21T05:05:42.367Z,14.40
2018-05-21T05:08:09.541Z,14.50
2018-05-21T05:10:36.268Z,14.50
2018-05-21T05:13:02.679Z,14.60
2018-05-21T05:15:29.782Z,14.70
2018-05-21T05:17:56.216Z,14.70
2018-05-21T05:20:22.579Z,14.80
2018-05-21T05:22:50.446Z,15.00
2018-05-21T05:25:16.846Z,15.00
2018-05-21T05:27:43.199Z,15.10
2018-05-21T05:30:09.896Z,15.10
2018-05-21T05:32:36.524Z,15.10
2018-05-21T05:35:03.725Z,15.40
2018-05-21T05:37:30.149Z,15.30
2018-05-21T05:39:56.548Z,15.50
2018-05-21T05:42:22.939Z,15.50
2018-05-21T05:44:49.321Z,15.70
2018-05-21T05:47:15.744Z,15.70
2018-05-21T05:49:42.149Z,15.80
2018-05-21T05:52:09.310Z,16.00
2018-05-21T05:54:35.729Z,16.00
2018-05-21T05:57:02.908Z,16.20
2018-05-21T05:59:29.312Z,16.20
2018-05-21T06:01:56.495Z,16.40
2018-05-21T06:04:23.131Z,16.40
2018-05-21T06:06:49.535Z,16.30
2018-05-21T06:09:16.634Z,16.50
2018-05-21T06:11:43.046Z,16.50
2018-05-21T06:14:09.672Z,16.60
2018-05-21T06:16:36.323Z,16.70
2018-05-21T06:19:02.726Z,14.80
2018-05-21T06:21:29.936Z,16.90
2018-05-21T06:23:56.273Z,16.80
2018-05-21T06:26:22.657Z,17.00
2018-05-21T06:28:49.012Z,16.90
2018-05-21T06:31:15.459Z,17.10
2018-05-21T06:33:41.865Z,17.10
2018-05-21T06:36:08.295Z,17.20
2018-05-21T06:38:34.808Z,17.30
2018-05-21T06:41:01.981Z,17.40
2018-05-21T06:43:28.394Z,17.40
2018-05-21T06:45:55.760Z,17.50
2018-05-21T06:48:22.368Z,17.50
2018-05-21T06:50:48.740Z,17.50
2018-05-21T06:53:15.177Z,17.60
2018-05-21T06:55:41.555Z,17.70
2018-05-21T06:58:07.998Z,17.90
2018-05-21T07:00:34.490Z,18.00
2018-05-21T07:03:00.867Z,18.00
2018-05-21T07:05:27.287Z,18.00
2018-05-21T07:07:53.757Z,18.20
2018-05-21T07:10:20.875Z,18.30
2018-05-21T07:12:48.042Z,18.30
2018-05-21T07:15:15.196Z,18.40
2018-05-21T07:17:42.319Z,18.40
2018-05-21T07:20:08.735Z,18.40
2018-05-21T07:22:35.106Z,18.40
2018-05-21T07:25:02.248Z,18.60
2018-05-21T07:27:28.790Z,18.60
2018-05-21T07:29:55.942Z,18.70
2018-05-21T07:32:23.058Z,18.80
2018-05-21T07:34:49.493Z,18.80
2018-05-21T07:37:15.931Z,18.90
2018-05-21T07:39:42.324Z,19.00
2018-05-21T07:42:08.748Z,19.10
2018-05-21T07:44:35.123Z,19.10
2018-05-21T07:47:01.511Z,19.10
2018-05-21T07:49:27.893Z,19.20
2018-05-21T07:51:54.993Z,19.40
2018-05-21T07:54:21.434Z,19.40
2018-05-21T07:56:47.876Z,19.50
2018-05-21T07:59:14.276Z,19.60
2018-05-21T08:01:41.490Z,19.80
2018-05-21T08:04:07.874Z,19.80
2018-05-21T08:06:34.311Z,19.90
2018-05-21T08:09:00.843Z,20.00
2018-05-21T08:11:27.216Z,20.00
2018-05-21T08:13:53.612Z,20.00
2018-05-21T08:16:20.081Z,20.10
2018-05-21T08:18:46.493Z,20.10
2018-05-21T08:21:12.957Z,20.20
2018-05-21T08:23:39.629Z,20.20
2018-05-21T08:26:06.785Z,20.20
2018-05-21T08:28:33.275Z,20.20
2018-05-21T08:30:59.738Z,20.20
2018-05-21T08:33:26.893Z,20.40
2018-05-21T08:35:54.067Z,20.50
2018-05-21T08:38:20.474Z,20.40
2018-05-21T08:40:47.595Z,20.70
2018-05-21T08:43:14.076Z,20.70
2018-05-21T08:45:40.498Z,20.70
2018-05-21T08:48:07.747Z,20.90
2018-05-21T08:50:34.911Z,21.00
2018-05-21T08:53:01.387Z,21.00
2018-05-21T08:55:27.795Z,21.10
2018-05-21T08:57:54.296Z,21.10
2018-05-21T09:00:21.542Z,21.00
2018-05-21T09:02:47.897Z,21.00
2018-05-21T09:05:14.641Z,21.00
2018-05-21T09:07:41.079Z,20.60
2018-05-21T09:10:07.865Z,21.10
2018-05-21T09:12:34.326Z,21.10
2018-05-21T09:15:00.779Z,21.10
2018-05-21T09:17:27.209Z,21.00
2018-05-21T09:19:53.601Z,21.00
2018-05-21T09:22:20.000Z,21.10
2018-05-21T09:24:46.382Z,21.40
2018-05-21T09:27:13.582Z,21.60
2018-05-21T09:29:40.034Z,21.60
2018-05-21T09:32:06.422Z,21.40
2018-05-21T09:34:32.888Z,21.60
2018-05-21T09:37:00.550Z,21.80
2018-05-21T09:39:27.450Z,21.80
2018-05-21T09:41:53.958Z,21.90
2018-05-21T09:44:20.541Z,22.10
2018-05-21T09:46:46.929Z,22.20
2018-05-21T09:49:13.346Z,22.30
2018-05-21T09:51:39.734Z,22.50
2018-05-21T09:54:06.117Z,22.70
2018-05-21T09:56:32.514Z,22.70
2018-05-21T09:58:58.861Z,22.70
2018-05-21T10:01:25.287Z,22.70
2018-05-21T10:03:51.927Z,22.80
2018-05-21T10:06:18.377Z,22.90
2018-05-21T10:08:45.083Z,22.90
2018-05-21T10:11:11.502Z,22.90
2018-05-21T10:13:38.288Z,23.20
2018-05-21T10:16:04.684Z,23.20
2018-05-21T10:18:31.732Z,23.30
2018-05-21T10:20:58.553Z,23.50
2018-05-21T10:23:25.684Z,23.90
2018-05-21T10:25:52.826Z,24.10
2018-05-21T10:28:19.232Z,24.00
2018-05-21T10:30:45.602Z,24.20
2018-05-21T10:33:12.760Z,24.50
2018-05-21T10:35:39.935Z,24.60
2018-05-21T10:38:06.331Z,24.60
2018-05-21T10:40:32.721Z,24.70
2018-05-21T10:42:59.122Z,24.60
2018-05-21T10:45:25.651Z,24.20
2018-05-21T10:47:52.013Z,24.40
2018-05-21T10:50:18.424Z,24.50
2018-05-21T10:52:44.833Z,24.20
2018-05-21T10:55:11.950Z,23.90
2018-05-21T10:57:38.675Z,23.90
2018-05-21T11:00:05.274Z,23.90
2018-05-21T11:02:32.404Z,23.90
2018-05-21T11:04:59.573Z,24.20
2018-05-21T11:07:26.922Z,24.50
2018-05-21T11:09:54.150Z,24.80
2018-05-21T11:12:20.526Z,24.80
2018-05-21T11:14:46.989Z,24.90
2018-05-21T11:17:13.351Z,24.90
2018-05-21T11:19:39.788Z,24.90
2018-05-21T11:22:06.285Z,25.10
2018-05-21T11:24:32.661Z,25.20
2018-05-21T11:26:59.808Z,25.50
2018-05-21T11:29:26.969Z,25.70
2018-05-21T11:31:54.342Z,25.70
2018-05-21T11:34:20.756Z,25.60
2018-05-21T11:36:47.866Z,25.90
2018-05-21T11:39:14.549Z,25.90
2018-05-21T11:41:40.966Z,25.80
2018-05-21T11:44:08.107Z,25.80
2018-05-21T11:46:34.490Z,25.80
2018-05-21T11:49:00.945Z,25.80
2018-05-21T11:51:27.471Z,25.70
2018-05-21T11:53:53.833Z,25.80
2018-05-21T11:56:20.300Z,25.80
2018-05-21T11:58:46.739Z,25.60
2018-05-21T12:01:13.866Z,25.90
2018-05-21T12:03:41.047Z,26.30
2018-05-21T12:06:07.493Z,26.30
2018-05-21T12:08:33.934Z,26.50
2018-05-21T12:11:00.397Z,26.70
2018-05-21T12:13:26.883Z,26.70
2018-05-21T12:15:53.285Z,26.20
2018-05-21T12:18:20.405Z,26.30
2018-05-21T12:20:46.810Z,26.30
2018-05-21T12:23:13.173Z,26.10
2018-05-21T12:25:39.598Z,25.90
2018-05-21T12:28:06.056Z,25.70
2018-05-21T12:30:33.195Z,26.40
2018-05-21T12:32:59.688Z,26.10
2018-05-21T12:35:26.057Z,26.70
2018-05-21T12:37:53.224Z,27.10
2018-05-21T12:40:20.406Z,27.20
2018-05-21T12:42:46.892Z,27.00
2018-05-21T12:45:13.318Z,27.20
2018-05-21T12:47:40.220Z,26.90
2018-05-21T12:50:07.720Z,26.90
2018-05-21T12:52:34.122Z,27.60
2018-05-21T12:55:00.482Z,27.60
2018-05-21T12:57:27.002Z,27.80
2018-05-21T12:59:53.436Z,27.90
2018-05-21T13:02:20.129Z,27.80
2018-05-21T13:04:47.290Z,27.80
2018-05-21T13:07:13.766Z,27.80
2018-05-21T13:09:40.321Z,27.60
2018-05-21T13:12:06.784Z,27.60
2018-05-21T13:14:33.293Z,27.60
2018-05-21T13:16:59.710Z,27.60
2018-05-21T13:19:26.494Z,27.60
2018-05-21T13:21:53.710Z,27.90
2018-05-21T13:24:20.147Z,27.90
2018-05-21T13:26:48.680Z,28.30
2018-05-21T13:29:15.158Z,28.40
2018-05-21T13:31:41.726Z,28.50
2018-05-21T13:34:08.305Z,28.90
2018-05-21T13:36:34.741Z,29.10
2018-05-21T13:39:01.557Z,29.80
2018-05-21T13:41:28.028Z,29.80
2018-05-21T13:43:54.681Z,30.00
2018-05-21T13:46:22.123Z,30.30
2018-05-21T13:48:48.557Z,30.30
2018-05-21T13:51:14.921Z,30.60
2018-05-21T13:53:42.248Z,30.90
2018-05-21T13:56:08.796Z,30.90
2018-05-21T13:58:35.263Z,31.80
2018-05-21T14:01:01.613Z,32.40
2018-05-21T14:03:27.978Z,32.60
2018-05-21T14:05:54.589Z,31.70
2018-05-21T14:08:21.167Z,31.30
2018-05-21T14:10:47.655Z,31.50
2018-05-21T14:13:14.047Z,31.00
2018-05-21T14:15:41.198Z,29.90
2018-05-21T14:18:08.318Z,29.90
2018-05-21T14:20:34.851Z,29.80
2018-05-21T14:23:01.614Z,30.00
2018-05-21T14:25:28.865Z,29.30
2018-05-21T14:27:55.975Z,30.10
2018-05-21T14:30:22.428Z,30.10
2018-05-21T14:32:48.841Z,30.60
2018-05-21T14:35:15.372Z,31.70
2018-05-21T14:37:41.766Z,32.50
2018-05-21T14:40:08.920Z,33.80
2018-05-21T14:42:36.215Z,33.30
2018-05-21T14:45:02.663Z,33.20
2018-05-21T14:47:29.136Z,32.50
2018-05-21T14:49:56.634Z,33.80
2018-05-21T14:52:23.010Z,33.70
2018-05-21T14:54:49.777Z,34.00
2018-05-21T14:57:16.242Z,32.90
2018-05-21T14:59:42.618Z,31.60
2018-05-21T15:02:09.185Z,30.60
2018-05-21T15:04:35.510Z,30.40
2018-05-21T15:07:02.033Z,29.70
2018-05-21T15:09:29.191Z,29.40
2018-05-21T15:11:56.305Z,28.90
2018-05-21T15:14:23.369Z,28.80
2018-05-21T15:19:18.757Z,26.90
2018-05-21T15:21:45.224Z,26.90
2018-05-21T15:24:12.706Z,26.40
2018-05-21T15:26:39.075Z,26.30
2018-05-21T15:29:05.479Z,26.00
2018-05-21T15:31:31.967Z,25.60
2018-05-21T15:33:58.434Z,25.20
2018-05-21T15:36:26.331Z,24.80
2018-05-21T15:38:52.995Z,24.60
2018-05-21T15:41:19.486Z,24.40
2018-05-21T15:43:45.921Z,24.30
2018-05-21T15:46:12.387Z,24.30
2018-05-21T15:48:38.826Z,24.10
2018-05-21T15:51:05.318Z,24.00
2018-05-21T15:53:31.753Z,23.80
2018-05-21T15:55:58.202Z,23.90
2018-05-21T15:58:24.694Z,23.90
2018-05-21T16:00:51.938Z,23.80
2018-05-21T16:03:18.530Z,21.80
2018-05-21T16:05:44.995Z,23.80
2018-05-21T16:08:11.382Z,23.90
2018-05-21T16:10:37.846Z,23.90
2018-05-21T16:13:05.250Z,23.80
2018-05-21T16:15:31.752Z,23.80
2018-05-21T16:17:58.249Z,23.80
2018-05-21T16:20:24.597Z,23.70
2018-05-21T16:22:51.047Z,23.80
2018-05-21T16:25:17.539Z,23.80
2018-05-21T16:27:44.071Z,23.90
2018-05-21T16:30:10.623Z,24.00
2018-05-21T16:32:36.986Z,24.10
2018-05-21T16:35:03.544Z,24.20
2018-05-21T16:37:30.691Z,24.00
2018-05-21T16:39:57.927Z,24.10
2018-05-21T16:42:24.412Z,22.40
2018-05-21T16:44:50.883Z,24.20
2018-05-21T16:47:17.291Z,24.30
2018-05-21T16:49:43.673Z,24.60
2018-05-21T16:52:11.214Z,25.90
2018-05-21T16:54:37.752Z,25.90
2018-05-21T16:57:04.237Z,26.60
2018-05-21T16:59:30.639Z,27.10
2018-05-21T17:01:57.907Z,28.30
2018-05-21T17:04:25.286Z,29.00
2018-05-21T17:06:51.782Z,29.00
2018-05-21T17:09:19.288Z,29.20
2018-05-21T17:11:45.870Z,29.10
2018-05-21T17:14:13.269Z,29.30
2018-05-21T17:16:39.763Z,29.20
2018-05-21T17:19:07.122Z,28.90
2018-05-21T17:21:34.373Z,29.10
2018-05-21T17:24:02.556Z,28.40
2018-05-21T17:26:29.760Z,28.10
2018-05-21T17:28:56.129Z,28.00
2018-05-21T17:31:23.278Z,29.10
2018-05-21T17:33:50.404Z,28.90
2018-05-21T17:36:16.880Z,28.80
2018-05-21T17:38:43.288Z,28.80
2018-05-21T17:41:10.443Z,29.10
2018-05-21T17:43:37.586Z,28.70
2018-05-21T17:46:04.776Z,28.30
2018-05-21T17:48:31.221Z,28.30
2018-05-21T17:50:57.789Z,28.00
2018-05-21T17:53:24.481Z,27.70
2018-05-21T17:55:51.353Z,27.50
2018-05-21T17:58:18.099Z,26.90
2018-05-21T18:00:45.917Z,26.60
2018-05-21T18:03:12.680Z,26.40
2018-05-21T18:05:39.689Z,26.00
2018-05-21T18:08:08.788Z,25.40
2018-05-21T18:10:35.562Z,25.40
2018-05-21T18:13:02.060Z,25.30
2018-05-21T18:15:29.233Z,24.90
2018-05-21T18:17:55.868Z,24.90
2018-05-21T18:20:22.298Z,24.60
2018-05-21T18:22:48.931Z,24.40
2018-05-21T18:25:16.067Z,24.10
2018-05-21T18:27:43.267Z,24.10
2018-05-21T18:30:09.779Z,24.00
2018-05-21T18:32:36.329Z,24.10
2018-05-21T18:35:02.846Z,23.50
2018-05-21T18:37:29.594Z,23.70
2018-05-21T18:39:56.057Z,23.60
2018-05-21T18:42:22.846Z,23.20
2018-05-21T18:44:49.447Z,23.30
2018-05-21T18:47:16.640Z,23.00
2018-05-21T18:49:44.015Z,22.90
2018-05-21T18:52:10.567Z,22.90
2018-05-21T18:54:37.098Z,22.60
2018-05-21T18:57:03.810Z,22.70
2018-05-21T18:59:31.317Z,22.40
2018-05-21T19:01:57.770Z,22.30
2018-05-21T19:04:24.460Z,22.00
2018-05-21T19:06:51.307Z,21.80
2018-05-21T19:09:17.745Z,21.50
2018-05-21T19:11:45.382Z,21.40
2018-05-21T19:14:11.917Z,21.10
2018-05-21T19:16:38.487Z,21.00
2018-05-21T19:19:04.967Z,20.70
2018-05-21T19:21:32.144Z,20.50
2018-05-21T19:23:59.266Z,20.40
2018-05-21T19:26:25.961Z,20.40
2018-05-21T19:28:52.473Z,20.20
2018-05-21T19:31:19.052Z,20.10
2018-05-21T19:33:45.879Z,19.80
2018-05-21T19:36:12.713Z,19.80
2018-05-21T19:38:39.142Z,19.70
2018-05-21T19:41:06.195Z,19.60
2018-05-21T19:43:32.597Z,19.50
2018-05-21T19:45:59.097Z,19.40
2018-05-21T19:48:26.387Z,19.10
2018-05-21T19:50:52.860Z,19.00
2018-05-21T19:53:20.491Z,19.00
2018-05-21T19:55:47.935Z,18.80
2018-05-21T19:58:15.471Z,18.80
2018-05-21T20:00:42.838Z,18.70
2018-05-21T20:03:09.240Z,18.70
2018-05-21T20:05:36.709Z,18.50
2018-05-21T20:08:04.693Z,18.40
2018-05-21T20:10:31.544Z,18.40
2018-05-21T20:12:58.038Z,18.30
2018-05-21T20:15:24.746Z,17.90
2018-05-21T20:17:51.284Z,17.60
2018-05-21T20:20:17.921Z,18.10
2018-05-21T20:22:44.626Z,18.00
2018-05-21T20:25:11.012Z,17.90
2018-05-21T20:27:37.526Z,17.80
2018-05-21T20:30:03.980Z,17.80
2018-05-21T20:32:30.498Z,17.80
2018-05-21T20:34:57.196Z,17.60
2018-05-21T20:37:23.763Z,17.60
2018-05-21T20:39:50.229Z,17.60
2018-05-21T20:42:16.687Z,17.50
2018-05-21T20:44:43.087Z,17.60
2018-05-21T20:47:10.909Z,17.60
2018-05-21T20:49:37.386Z,17.70
2018-05-21T20:52:03.754Z,17.70
2018-05-21T20:54:30.979Z,17.90
2018-05-21T20:56:57.389Z,17.80
2018-05-21T20:59:25.736Z,17.80
2018-05-21T21:01:53.657Z,17.80
2018-05-21T21:04:22.183Z,17.80
2018-05-21T21:06:50.309Z,17.40
2018-05-21T21:09:18.190Z,17.50
2018-05-21T21:11:45.763Z,17.80
2018-05-21T21:14:12.910Z,17.70
2018-05-21T21:16:40.104Z,17.70
2018-05-21T21:19:06.510Z,17.70
2018-05-21T21:21:32.880Z,17.70
2018-05-21T21:23:59.303Z,17.70
2018-05-21T21:26:25.982Z,17.70
2018-05-21T21:28:53.152Z,17.90
2018-05-21T21:31:20.304Z,18.00
2018-05-21T21:33:47.564Z,18.10
2018-05-21T21:36:13.949Z,18.00
2018-05-21T21:38:40.396Z,18.10
2018-05-21T21:41:07.061Z,18.20
2018-05-21T21:43:34.208Z,18.20
2018-05-21T21:46:01.354Z,18.30
2018-05-21T21:48:28.494Z,18.20
2018-05-21T21:50:55.697Z,18.20
2018-05-21T21:53:22.198Z,18.20
2018-05-21T21:55:48.691Z,18.20
2018-05-21T21:58:15.081Z,18.20
2018-05-21T22:00:41.531Z,18.20
2018-05-21T22:03:08.716Z,18.10
2018-05-21T22:05:35.193Z,17.80
2018-05-21T22:08:01.649Z,18.00
2018-05-21T22:10:28.187Z,18.00
2018-05-21T22:12:54.646Z,17.90
2018-05-21T22:15:21.084Z,17.80
2018-05-21T22:17:47.540Z,17.70
2018-05-21T22:20:13.984Z,17.60
2018-05-21T22:22:41.444Z,17.40
2018-05-21T22:25:14.718Z,17.40
2018-05-21T22:27:42.084Z,17.20
2018-05-21T22:30:09.402Z,17.10
2018-05-21T22:32:35.963Z,17.10
2018-05-21T22:35:03.220Z,17.10
2018-05-21T22:37:29.757Z,17.00
2018-05-21T22:39:57.083Z,17.00
2018-05-21T22:42:27.341Z,16.90
2018-05-21T22:44:53.746Z,16.90
2018-05-21T22:47:20.167Z,16.80
2018-05-21T22:49:46.752Z,16.80
2018-05-21T22:52:13.348Z,16.80
2018-05-21T22:54:39.766Z,16.80
2018-05-21T22:57:06.151Z,16.80
2018-05-21T22:59:32.522Z,16.80
2018-05-21T23:01:58.963Z,16.70
2018-05-21T23:04:25.388Z,16.70
2018-05-21T23:06:53.265Z,16.70
2018-05-21T23:09:19.661Z,16.70
2018-05-21T23:11:46.133Z,16.50
2018-05-21T23:14:13.391Z,16.50
2018-05-21T23:16:39.756Z,16.50
2018-05-21T23:19:06.151Z,16.50
2018-05-21T23:21:32.602Z,16.30
2018-05-21T23:23:59.218Z,16.60
2018-05-21T23:26:25.606Z,16.50
2018-05-21T23:28:52.455Z,16.60
2018-05-21T23:31:20.163Z,16.60
2018-05-21T23:33:47.665Z,16.50
2018-05-21T23:36:14.310Z,16.50
2018-05-21T23:38:40.722Z,16.40
2018-05-21T23:41:07.198Z,16.30
2018-05-21T23:43:33.660Z,16.30
2018-05-21T23:46:00.834Z,16.10
2018-05-21T23:48:28.080Z,16.10
2018-05-21T23:50:55.355Z,16.00
2018-05-21T23:53:21.856Z,16.00
2018-05-21T23:55:48.359Z,15.70
2018-05-21T23:58:14.860Z,15.80
